KAC616 OBBI-OKKK
Flight info
| Callsign | KAC616 |
|---|---|
| Flight time | 0h 42m |
| Altitude | 24000 |
| Route | BHR A453 DEBTI |
| Aircraft | A339/H-SADE1E2E3GHIJ3J5M1P2RWXY/LB2D1 |
Departure
| Time | 2026-04-28 14:46 |
|---|---|
| Airport | Bahrain International Airport (OBBI) |
Arrival
| Time | 2026-04-28 15:29 |
|---|---|
| Airport | Kuwait International Airport (OKKK) |
| Time | Latitude | Longitude | Altitude | Speed | Heading |
|---|---|---|---|---|---|
| 2026-04-28 13:55 | 26.26976 | 50.62794 | 20 ft | 0 kts | 213° |
| 2026-04-28 14:32 | 26.26986 | 50.62801 | 20 ft | 2 kts | 213° |
| 2026-04-28 14:33 | 26.26999 | 50.62810 | 20 ft | 2 kts | 213° |
| 2026-04-28 14:33 | 26.27012 | 50.62819 | 20 ft | 2 kts | 213° |
| 2026-04-28 14:33 | 26.27024 | 50.62828 | 20 ft | 2 kts | 213° |
| 2026-04-28 14:33 | 26.27037 | 50.62838 | 20 ft | 2 kts | 213° |
| 2026-04-28 14:34 | 26.27064 | 50.62838 | 20 ft | 2 kts | 130° |
| 2026-04-28 14:34 | 26.27071 | 50.62825 | 20 ft | 2 kts | 118° |
| 2026-04-28 14:34 | 26.27078 | 50.62811 | 20 ft | 2 kts | 124° |
| 2026-04-28 14:35 | 26.27087 | 50.62797 | 20 ft | 2 kts | 124° |
| 2026-04-28 14:35 | 26.27095 | 50.62783 | 20 ft | 2 kts | 123° |
| 2026-04-28 14:35 | 26.27099 | 50.62777 | 20 ft | 0 kts | 123° |
| 2026-04-28 14:39 | 26.27094 | 50.62786 | 20 ft | 2 kts | 124° |
| 2026-04-28 14:40 | 26.27075 | 50.62818 | 20 ft | 6 kts | 119° |
| 2026-04-28 14:40 | 26.27067 | 50.62849 | 20 ft | 5 kts | 91° |
| 2026-04-28 14:40 | 26.27110 | 50.62904 | 20 ft | 8 kts | 24° |
| 2026-04-28 14:40 | 26.27159 | 50.62887 | 20 ft | 8 kts | 314° |
| 2026-04-28 14:41 | 26.27196 | 50.62830 | 20 ft | 9 kts | 304° |
| 2026-04-28 14:41 | 26.27234 | 50.62765 | 20 ft | 10 kts | 302° |
| 2026-04-28 14:41 | 26.27272 | 50.62696 | 20 ft | 11 kts | 302° |
| 2026-04-28 14:41 | 26.27320 | 50.62615 | 20 ft | 12 kts | 303° |
| 2026-04-28 14:42 | 26.27369 | 50.62532 | 20 ft | 13 kts | 303° |
| 2026-04-28 14:42 | 26.27420 | 50.62443 | 20 ft | 13 kts | 303° |
| 2026-04-28 14:42 | 26.27474 | 50.62350 | 20 ft | 14 kts | 303° |
| 2026-04-28 14:42 | 26.27525 | 50.62262 | 20 ft | 11 kts | 302° |
| 2026-04-28 14:43 | 26.27571 | 50.62183 | 20 ft | 12 kts | 303° |
| 2026-04-28 14:43 | 26.27619 | 50.62099 | 20 ft | 13 kts | 302° |
| 2026-04-28 14:43 | 26.27670 | 50.62011 | 20 ft | 13 kts | 303° |
| 2026-04-28 14:43 | 26.27724 | 50.61919 | 20 ft | 13 kts | 303° |
| 2026-04-28 14:44 | 26.27777 | 50.61825 | 20 ft | 14 kts | 302° |
| 2026-04-28 14:44 | 26.27833 | 50.61728 | 20 ft | 15 kts | 303° |
| 2026-04-28 14:44 | 26.27886 | 50.61643 | 20 ft | 6 kts | 317° |
| 2026-04-28 14:44 | 26.27931 | 50.61632 | 20 ft | 7 kts | 12° |
| 2026-04-28 14:45 | 26.27981 | 50.61661 | 20 ft | 8 kts | 36° |
| 2026-04-28 14:45 | 26.28015 | 50.61722 | 20 ft | 9 kts | 86° |
| 2026-04-28 14:45 | 26.27994 | 50.61797 | 20 ft | 10 kts | 124° |
| 2026-04-28 14:45 | 26.27953 | 50.61870 | 20 ft | 14 kts | 122° |
| 2026-04-28 14:46 | 26.27789 | 50.62154 | 20 ft | 75 kts | 122° |
| 2026-04-28 14:46 | 26.27388 | 50.62850 | 21 ft | 133 kts | 123° |
| 2026-04-28 14:46 | 26.26812 | 50.63844 | 208 ft | 162 kts | 121° |
| 2026-04-28 14:46 | 26.26198 | 50.64847 | 798 ft | 157 kts | 119° |
| 2026-04-28 14:47 | 26.25893 | 50.65997 | 1212 ft | 158 kts | 84° |
| 2026-04-28 14:47 | 26.25962 | 50.67230 | 1702 ft | 161 kts | 78° |
| 2026-04-28 14:47 | 26.26074 | 50.68515 | 2017 ft | 171 kts | 78° |
| 2026-04-28 14:47 | 26.26204 | 50.69881 | 2267 ft | 184 kts | 77° |
| 2026-04-28 14:48 | 26.26354 | 50.71354 | 2526 ft | 197 kts | 75° |
| 2026-04-28 14:48 | 26.26904 | 50.72682 | 2833 ft | 195 kts | 37° |
| 2026-04-28 14:48 | 26.28210 | 50.73197 | 3096 ft | 205 kts | 355° |
| 2026-04-28 14:48 | 26.29601 | 50.72678 | 3371 ft | 219 kts | 329° |
| 2026-04-28 14:49 | 26.30985 | 50.71783 | 3667 ft | 236 kts | 329° |
| 2026-04-28 14:49 | 26.32498 | 50.70857 | 3983 ft | 253 kts | 330° |
| 2026-04-28 14:49 | 26.34060 | 50.69916 | 4513 ft | 260 kts | 330° |
| 2026-04-28 14:49 | 26.35683 | 50.68953 | 5140 ft | 263 kts | 330° |
| 2026-04-28 14:50 | 26.37274 | 50.68013 | 5663 ft | 268 kts | 330° |
| 2026-04-28 14:50 | 26.38947 | 50.67024 | 6259 ft | 272 kts | 330° |
| 2026-04-28 14:50 | 26.40625 | 50.66034 | 6870 ft | 275 kts | 330° |
| 2026-04-28 14:50 | 26.42330 | 50.65033 | 7452 ft | 279 kts | 329° |
| 2026-04-28 14:51 | 26.44090 | 50.63998 | 8057 ft | 282 kts | 329° |
| 2026-04-28 14:51 | 26.45846 | 50.62964 | 8657 ft | 286 kts | 328° |
| 2026-04-28 14:51 | 26.47634 | 50.61910 | 9243 ft | 290 kts | 328° |
| 2026-04-28 14:51 | 26.49409 | 50.60863 | 9868 ft | 292 kts | 327° |
| 2026-04-28 14:52 | 26.51251 | 50.59776 | 10373 ft | 300 kts | 328° |
| 2026-04-28 14:52 | 26.53164 | 50.58640 | 10660 ft | 317 kts | 328° |
| 2026-04-28 14:52 | 26.55177 | 50.57448 | 10940 ft | 333 kts | 328° |
| 2026-04-28 14:52 | 26.57286 | 50.56197 | 11220 ft | 348 kts | 328° |
| 2026-04-28 14:53 | 26.59492 | 50.54895 | 11487 ft | 363 kts | 328° |
| 2026-04-28 14:53 | 26.61764 | 50.53554 | 11773 ft | 377 kts | 328° |
| 2026-04-28 14:53 | 26.64118 | 50.52167 | 12313 ft | 383 kts | 328° |
| 2026-04-28 14:53 | 26.66494 | 50.50766 | 12995 ft | 385 kts | 328° |
| 2026-04-28 14:54 | 26.68834 | 50.49279 | 13652 ft | 385 kts | 323° |
| 2026-04-28 14:54 | 26.71031 | 50.47566 | 14262 ft | 386 kts | 318° |
| 2026-04-28 14:54 | 26.73070 | 50.45634 | 14886 ft | 386 kts | 314° |
| 2026-04-28 14:54 | 26.75025 | 50.43586 | 15491 ft | 388 kts | 313° |
| 2026-04-28 14:55 | 26.77006 | 50.41473 | 16078 ft | 392 kts | 313° |
| 2026-04-28 14:55 | 26.78994 | 50.39355 | 16693 ft | 395 kts | 313° |
| 2026-04-28 14:55 | 26.80980 | 50.37248 | 17279 ft | 397 kts | 313° |
| 2026-04-28 14:55 | 26.83013 | 50.35097 | 17849 ft | 401 kts | 313° |
| 2026-04-28 14:56 | 26.85062 | 50.32932 | 18401 ft | 405 kts | 312° |
| 2026-04-28 14:56 | 26.87093 | 50.30781 | 18946 ft | 408 kts | 312° |
| 2026-04-28 14:56 | 26.89165 | 50.28589 | 19466 ft | 413 kts | 311° |
| 2026-04-28 14:56 | 26.91278 | 50.26343 | 19944 ft | 417 kts | 311° |
| 2026-04-28 14:57 | 26.93414 | 50.24075 | 20454 ft | 421 kts | 311° |
| 2026-04-28 14:57 | 26.94821 | 50.22581 | 20796 ft | 423 kts | 311° |
| 2026-04-28 14:57 | 26.97720 | 50.19497 | 21472 ft | 428 kts | 310° |
| 2026-04-28 14:57 | 26.99872 | 50.17207 | 21924 ft | 431 kts | 310° |
| 2026-04-28 14:58 | 27.02083 | 50.14854 | 22409 ft | 434 kts | 310° |
| 2026-04-28 14:58 | 27.04188 | 50.12542 | 22811 ft | 436 kts | 307° |
| 2026-04-28 14:58 | 27.06249 | 50.10040 | 23253 ft | 437 kts | 304° |
| 2026-04-28 14:58 | 27.08249 | 50.07446 | 23655 ft | 438 kts | 304° |
| 2026-04-28 14:59 | 27.10241 | 50.04829 | 23780 ft | 438 kts | 303° |
| 2026-04-28 14:59 | 27.12229 | 50.02211 | 23778 ft | 438 kts | 304° |
| 2026-04-28 14:59 | 27.14247 | 49.99552 | 23776 ft | 438 kts | 304° |
| 2026-04-28 14:59 | 27.16218 | 49.96954 | 23778 ft | 437 kts | 304° |
| 2026-04-28 15:00 | 27.18192 | 49.94355 | 23779 ft | 438 kts | 304° |
| 2026-04-28 15:00 | 27.20180 | 49.91736 | 23779 ft | 437 kts | 304° |
| 2026-04-28 15:00 | 27.22149 | 49.89141 | 23778 ft | 438 kts | 304° |
| 2026-04-28 15:00 | 27.24126 | 49.86534 | 23774 ft | 437 kts | 304° |
| 2026-04-28 15:01 | 27.26086 | 49.83947 | 23778 ft | 436 kts | 304° |
| 2026-04-28 15:01 | 27.28067 | 49.81332 | 23769 ft | 436 kts | 304° |
| 2026-04-28 15:01 | 27.30034 | 49.78732 | 23773 ft | 436 kts | 304° |
| 2026-04-28 15:01 | 27.32032 | 49.76092 | 23771 ft | 437 kts | 304° |
| 2026-04-28 15:02 | 27.34015 | 49.73470 | 23763 ft | 436 kts | 304° |
| 2026-04-28 15:02 | 27.35992 | 49.70852 | 23764 ft | 436 kts | 304° |
| 2026-04-28 15:02 | 27.37944 | 49.68261 | 23771 ft | 435 kts | 304° |
| 2026-04-28 15:02 | 27.39904 | 49.65661 | 23771 ft | 434 kts | 304° |
| 2026-04-28 15:03 | 27.41870 | 49.63047 | 23764 ft | 434 kts | 304° |
| 2026-04-28 15:03 | 27.43840 | 49.60429 | 23768 ft | 435 kts | 304° |
| 2026-04-28 15:03 | 27.45816 | 49.57854 | 23769 ft | 436 kts | 305° |
| 2026-04-28 15:03 | 27.47935 | 49.55364 | 23756 ft | 440 kts | 309° |
| 2026-04-28 15:04 | 27.50194 | 49.52987 | 23754 ft | 443 kts | 312° |
| 2026-04-28 15:04 | 27.52561 | 49.50757 | 23759 ft | 445 kts | 314° |
| 2026-04-28 15:04 | 27.54992 | 49.48569 | 23753 ft | 445 kts | 315° |
| 2026-04-28 15:04 | 27.57358 | 49.46452 | 23745 ft | 444 kts | 315° |
| 2026-04-28 15:05 | 27.59839 | 49.44235 | 23750 ft | 444 kts | 315° |
| 2026-04-28 15:05 | 27.62262 | 49.42065 | 23605 ft | 445 kts | 315° |
| 2026-04-28 15:05 | 27.64700 | 49.39878 | 23357 ft | 442 kts | 315° |
| 2026-04-28 15:05 | 27.67086 | 49.37738 | 23128 ft | 441 kts | 315° |
| 2026-04-28 15:06 | 27.69502 | 49.35566 | 22893 ft | 441 kts | 315° |
| 2026-04-28 15:06 | 27.71882 | 49.33425 | 22653 ft | 440 kts | 315° |
| 2026-04-28 15:06 | 27.74266 | 49.31278 | 22409 ft | 437 kts | 315° |
| 2026-04-28 15:06 | 27.76645 | 49.29137 | 22162 ft | 433 kts | 315° |
| 2026-04-28 15:07 | 27.79011 | 49.27005 | 21924 ft | 431 kts | 315° |
| 2026-04-28 15:07 | 27.81348 | 49.24896 | 21679 ft | 429 kts | 315° |
| 2026-04-28 15:07 | 27.83696 | 49.22780 | 21424 ft | 427 kts | 315° |
| 2026-04-28 15:07 | 27.86051 | 49.20723 | 21185 ft | 427 kts | 317° |
| 2026-04-28 15:08 | 27.88477 | 49.18825 | 20937 ft | 428 kts | 321° |
| 2026-04-28 15:08 | 27.91022 | 49.17050 | 20698 ft | 427 kts | 323° |
| 2026-04-28 15:08 | 27.93587 | 49.15359 | 20450 ft | 426 kts | 323° |
| 2026-04-28 15:08 | 27.96185 | 49.13657 | 20206 ft | 424 kts | 324° |
| 2026-04-28 15:09 | 27.98746 | 49.11982 | 19965 ft | 422 kts | 324° |
| 2026-04-28 15:09 | 28.01339 | 49.10284 | 19730 ft | 421 kts | 323° |
| 2026-04-28 15:09 | 28.03879 | 49.08617 | 19477 ft | 418 kts | 323° |
| 2026-04-28 15:09 | 28.06417 | 49.06949 | 19236 ft | 416 kts | 324° |
| 2026-04-28 15:10 | 28.08964 | 49.05271 | 18981 ft | 415 kts | 324° |
| 2026-04-28 15:10 | 28.11468 | 49.03624 | 18642 ft | 413 kts | 324° |
| 2026-04-28 15:10 | 28.13973 | 49.01975 | 18250 ft | 410 kts | 324° |
| 2026-04-28 15:10 | 28.16443 | 49.00348 | 17881 ft | 407 kts | 324° |
| 2026-04-28 15:11 | 28.18925 | 48.98711 | 17489 ft | 404 kts | 324° |
| 2026-04-28 15:11 | 28.21356 | 48.97104 | 17090 ft | 401 kts | 324° |
| 2026-04-28 15:11 | 28.23800 | 48.95490 | 16634 ft | 399 kts | 324° |
| 2026-04-28 15:11 | 28.26196 | 48.93907 | 16161 ft | 397 kts | 324° |
| 2026-04-28 15:12 | 28.28600 | 48.92316 | 15679 ft | 395 kts | 325° |
| 2026-04-28 15:12 | 28.31011 | 48.90725 | 15194 ft | 394 kts | 325° |
| 2026-04-28 15:12 | 28.33391 | 48.89153 | 14797 ft | 391 kts | 325° |
| 2026-04-28 15:12 | 28.35751 | 48.87593 | 14738 ft | 394 kts | 325° |
| 2026-04-28 15:13 | 28.38176 | 48.85990 | 14721 ft | 396 kts | 325° |
| 2026-04-28 15:13 | 28.40590 | 48.84391 | 14705 ft | 397 kts | 325° |
| 2026-04-28 15:13 | 28.43035 | 48.82770 | 14728 ft | 397 kts | 325° |
| 2026-04-28 15:13 | 28.45427 | 48.81183 | 14733 ft | 397 kts | 325° |
| 2026-04-28 15:14 | 28.47866 | 48.79561 | 14593 ft | 394 kts | 325° |
| 2026-04-28 15:14 | 28.50186 | 48.77927 | 14059 ft | 391 kts | 319° |
| 2026-04-28 15:14 | 28.52067 | 48.75676 | 13447 ft | 384 kts | 304° |
| 2026-04-28 15:14 | 28.53668 | 48.73278 | 13007 ft | 381 kts | 303° |
| 2026-04-28 15:15 | 28.55285 | 48.70847 | 12502 ft | 381 kts | 304° |
| 2026-04-28 15:15 | 28.56897 | 48.68474 | 12105 ft | 376 kts | 304° |
| 2026-04-28 15:15 | 28.58504 | 48.66149 | 11783 ft | 370 kts | 304° |
| 2026-04-28 15:15 | 28.60095 | 48.63873 | 11453 ft | 365 kts | 304° |
| 2026-04-28 15:16 | 28.61672 | 48.61633 | 10815 ft | 352 kts | 305° |
| 2026-04-28 15:16 | 28.63175 | 48.59511 | 10313 ft | 336 kts | 304° |
| 2026-04-28 15:16 | 28.64623 | 48.57472 | 10006 ft | 317 kts | 305° |
| 2026-04-28 15:16 | 28.65992 | 48.55542 | 9643 ft | 303 kts | 304° |
| 2026-04-28 15:17 | 28.67296 | 48.53705 | 9329 ft | 290 kts | 304° |
| 2026-04-28 15:17 | 28.68549 | 48.51932 | 9053 ft | 286 kts | 304° |
| 2026-04-28 15:17 | 28.69800 | 48.50161 | 8765 ft | 286 kts | 304° |
| 2026-04-28 15:17 | 28.71050 | 48.48394 | 8467 ft | 285 kts | 304° |
| 2026-04-28 15:18 | 28.72296 | 48.46634 | 8209 ft | 283 kts | 305° |
| 2026-04-28 15:18 | 28.73540 | 48.44875 | 7952 ft | 282 kts | 305° |
| 2026-04-28 15:18 | 28.74789 | 48.43113 | 7696 ft | 280 kts | 305° |
| 2026-04-28 15:18 | 28.76020 | 48.41374 | 7426 ft | 280 kts | 305° |
| 2026-04-28 15:19 | 28.77264 | 48.39612 | 7150 ft | 279 kts | 306° |
| 2026-04-28 15:19 | 28.78503 | 48.37858 | 6882 ft | 278 kts | 306° |
| 2026-04-28 15:19 | 28.79716 | 48.36145 | 6611 ft | 277 kts | 306° |
| 2026-04-28 15:19 | 28.80942 | 48.34407 | 6345 ft | 276 kts | 306° |
| 2026-04-28 15:20 | 28.82157 | 48.32686 | 6085 ft | 275 kts | 306° |
| 2026-04-28 15:20 | 28.83383 | 48.30948 | 5825 ft | 274 kts | 306° |
| 2026-04-28 15:20 | 28.84594 | 48.29232 | 5545 ft | 274 kts | 306° |
| 2026-04-28 15:20 | 28.85778 | 48.27553 | 5297 ft | 273 kts | 306° |
| 2026-04-28 15:21 | 28.86990 | 48.25835 | 5040 ft | 272 kts | 306° |
| 2026-04-28 15:21 | 28.88191 | 48.24134 | 4785 ft | 271 kts | 306° |
| 2026-04-28 15:21 | 28.89390 | 48.22434 | 4521 ft | 271 kts | 306° |
| 2026-04-28 15:21 | 28.90564 | 48.20771 | 4273 ft | 270 kts | 306° |
| 2026-04-28 15:22 | 28.91753 | 48.19084 | 4018 ft | 269 kts | 306° |
| 2026-04-28 15:22 | 28.92940 | 48.17396 | 3770 ft | 268 kts | 306° |
| 2026-04-28 15:22 | 28.94111 | 48.15732 | 3520 ft | 267 kts | 306° |
| 2026-04-28 15:22 | 28.95275 | 48.14081 | 3469 ft | 257 kts | 306° |
| 2026-04-28 15:23 | 28.96414 | 48.12477 | 3459 ft | 247 kts | 309° |
| 2026-04-28 15:23 | 28.97598 | 48.11121 | 3410 ft | 239 kts | 312° |
| 2026-04-28 15:23 | 28.98839 | 48.09828 | 3171 ft | 242 kts | 319° |
| 2026-04-28 15:23 | 29.00278 | 48.08776 | 2980 ft | 243 kts | 328° |
| 2026-04-28 15:24 | 29.01793 | 48.07943 | 2949 ft | 235 kts | 331° |
| 2026-04-28 15:24 | 29.03269 | 48.07190 | 2941 ft | 224 kts | 331° |
| 2026-04-28 15:24 | 29.04669 | 48.06472 | 2935 ft | 213 kts | 330° |
| 2026-04-28 15:24 | 29.05982 | 48.05783 | 2933 ft | 202 kts | 330° |
| 2026-04-28 15:25 | 29.07233 | 48.05118 | 2916 ft | 190 kts | 330° |
| 2026-04-28 15:25 | 29.08404 | 48.04491 | 2756 ft | 185 kts | 329° |
| 2026-04-28 15:25 | 29.09578 | 48.03860 | 2529 ft | 185 kts | 329° |
| 2026-04-28 15:25 | 29.10749 | 48.03232 | 2293 ft | 185 kts | 329° |
| 2026-04-28 15:26 | 29.11912 | 48.02612 | 2064 ft | 179 kts | 329° |
| 2026-04-28 15:26 | 29.13022 | 48.02022 | 1819 ft | 170 kts | 329° |
| 2026-04-28 15:26 | 29.14080 | 48.01458 | 1612 ft | 161 kts | 328° |
| 2026-04-28 15:26 | 29.15062 | 48.00937 | 1414 ft | 152 kts | 329° |
| 2026-04-28 15:27 | 29.16016 | 48.00431 | 1231 ft | 146 kts | 329° |
| 2026-04-28 15:27 | 29.16941 | 47.99936 | 1073 ft | 147 kts | 329° |
| 2026-04-28 15:27 | 29.17891 | 47.99425 | 892 ft | 148 kts | 328° |
| 2026-04-28 15:27 | 29.18835 | 47.98922 | 702 ft | 149 kts | 332° |
| 2026-04-28 15:28 | 29.19781 | 47.98428 | 505 ft | 150 kts | 333° |
| 2026-04-28 15:28 | 29.20723 | 47.97922 | 326 ft | 149 kts | 332° |
| 2026-04-28 15:28 | 29.21670 | 47.97420 | 193 ft | 149 kts | 332° |
| 2026-04-28 15:28 | 29.22553 | 47.96944 | 165 ft | 111 kts | 334° |
| 2026-04-28 15:29 | 29.22991 | 47.96714 | 158 ft | 32 kts | 334° |
| 2026-04-28 15:29 | 29.23163 | 47.96622 | 157 ft | 14 kts | 336° |
| 2026-04-28 15:29 | 29.23228 | 47.96598 | 157 ft | 10 kts | 348° |
| 2026-04-28 15:29 | 29.23298 | 47.96592 | 157 ft | 9 kts | 6° |
| 2026-04-28 15:30 | 29.23372 | 47.96611 | 156 ft | 11 kts | 17° |
| 2026-04-28 15:30 | 29.23450 | 47.96639 | 154 ft | 12 kts | 18° |
| 2026-04-28 15:30 | 29.23526 | 47.96655 | 153 ft | 7 kts | 359° |
| 2026-04-28 15:30 | 29.23582 | 47.96644 | 153 ft | 8 kts | 341° |
| 2026-04-28 15:31 | 29.23640 | 47.96617 | 153 ft | 9 kts | 335° |
| 2026-04-28 15:31 | 29.23704 | 47.96584 | 153 ft | 10 kts | 334° |
| 2026-04-28 15:31 | 29.23774 | 47.96546 | 153 ft | 11 kts | 336° |
| 2026-04-28 15:31 | 29.23850 | 47.96507 | 153 ft | 12 kts | 335° |
| 2026-04-28 15:32 | 29.23932 | 47.96464 | 153 ft | 13 kts | 335° |
| 2026-04-28 15:32 | 29.24020 | 47.96415 | 152 ft | 14 kts | 335° |
| 2026-04-28 15:32 | 29.24117 | 47.96363 | 151 ft | 15 kts | 334° |
| 2026-04-28 15:32 | 29.24209 | 47.96315 | 150 ft | 13 kts | 335° |
| 2026-04-28 15:33 | 29.24301 | 47.96265 | 148 ft | 15 kts | 334° |
| 2026-04-28 15:33 | 29.24400 | 47.96214 | 147 ft | 15 kts | 335° |
| 2026-04-28 15:33 | 29.24488 | 47.96166 | 147 ft | 13 kts | 336° |
| 2026-04-28 15:33 | 29.24571 | 47.96124 | 147 ft | 12 kts | 335° |
| 2026-04-28 15:34 | 29.24652 | 47.96080 | 146 ft | 13 kts | 333° |
| 2026-04-28 15:34 | 29.24734 | 47.96037 | 145 ft | 12 kts | 337° |
| 2026-04-28 15:34 | 29.24804 | 47.95999 | 145 ft | 10 kts | 332° |
| 2026-04-28 15:34 | 29.24865 | 47.95966 | 144 ft | 5 kts | 335° |
| 2026-04-28 15:35 | 29.24895 | 47.95950 | 144 ft | 5 kts | 335° |
| 2026-04-28 15:35 | 29.24955 | 47.95931 | 144 ft | 4 kts | 10° |
| 2026-04-28 15:35 | 29.24979 | 47.95952 | 144 ft | 5 kts | 56° |
| 2026-04-28 15:36 | 29.25000 | 47.96000 | 144 ft | 7 kts | 66° |
| 2026-04-28 15:36 | 29.25014 | 47.96035 | 144 ft | 0 kts | 66° |